createdAt,value
2022-12-19T00:01:16.919Z,101174.56
2022-12-19T00:06:18.678Z,101161.16
2022-12-19T00:11:21.497Z,101158.81
2022-12-19T00:16:24.273Z,101157.38
2022-12-19T00:21:27.968Z,101169.03
2022-12-19T00:26:30.790Z,101196.28
2022-12-19T00:31:33.301Z,101169.00
2022-12-19T00:36:35.167Z,101181.34
2022-12-19T00:41:37.783Z,101148.16
2022-12-19T00:46:43.888Z,101164.09
2022-12-19T00:51:56.692Z,101154.00
2022-12-19T00:56:58.067Z,101142.69
2022-12-19T01:01:59.583Z,101126.94
2022-12-19T01:07:02.328Z,101136.38
2022-12-19T01:12:24.416Z,101133.22
2022-12-19T01:17:26.342Z,101133.63
2022-12-19T01:22:27.712Z,101128.59
2022-12-19T01:27:29.077Z,101120.84
2022-12-19T01:32:30.488Z,101121.06
2022-12-19T01:37:31.875Z,101119.31
2022-12-19T01:42:36.716Z,101108.81
2022-12-19T01:48:15.932Z,101097.09
2022-12-19T01:53:17.303Z,101091.16
2022-12-19T01:58:18.643Z,101094.94
2022-12-19T02:03:29.599Z,101082.59
2022-12-19T02:08:30.995Z,101078.25
2022-12-19T02:13:34.280Z,101080.84
2022-12-19T02:18:51.791Z,101068.06
2022-12-19T02:24:20.937Z,101068.94
2022-12-19T02:29:43.904Z,101037.91
2022-12-19T02:40:26.853Z,101038.75
2022-12-19T02:45:30.839Z,101039.41
2022-12-19T02:50:39.140Z,101053.22
2022-12-19T02:56:02.160Z,101062.69
2022-12-19T03:01:27.581Z,101064.34
2022-12-19T03:06:40.720Z,101071.47
2022-12-19T03:11:42.992Z,101059.06
2022-12-19T03:16:44.415Z,101069.56
2022-12-19T03:21:48.997Z,101064.50
2022-12-19T03:26:54.567Z,101068.91
2022-12-19T03:31:56.847Z,101079.38
2022-12-19T03:37:01.443Z,101084.22
2022-12-19T03:42:21.473Z,101080.25
2022-12-19T03:47:40.649Z,101081.53
2022-12-19T03:52:46.949Z,101079.88
2022-12-19T03:57:54.774Z,101084.94
2022-12-19T04:02:56.162Z,101092.06
2022-12-19T04:08:00.465Z,101091.63
2022-12-19T04:13:45.344Z,101090.16
2022-12-19T04:18:48.086Z,101087.63
2022-12-19T04:23:52.807Z,101078.81
2022-12-19T04:28:55.856Z,101082.78
2022-12-19T04:33:57.234Z,101080.31
2022-12-19T04:38:58.638Z,101085.31
2022-12-19T04:44:00.089Z,101054.91
2022-12-19T04:49:01.624Z,101064.38
2022-12-19T04:54:03.050Z,101052.38
2022-12-19T04:59:04.465Z,101068.56
2022-12-19T05:04:05.928Z,101070.03
2022-12-19T05:09:07.330Z,101064.59
2022-12-19T05:14:10.553Z,101054.94
2022-12-19T05:19:11.955Z,101070.22
2022-12-19T05:24:13.576Z,101075.06
2022-12-19T05:29:15.264Z,101078.63
2022-12-19T05:34:16.721Z,101079.28
2022-12-19T05:39:18.766Z,101083.69
2022-12-19T05:44:20.219Z,101075.50
2022-12-19T05:49:21.638Z,101075.94
2022-12-19T05:54:23.166Z,101081.19
2022-12-19T05:59:24.571Z,101082.41
2022-12-19T06:04:25.969Z,101070.22
2022-12-19T06:09:27.509Z,101082.84
2022-12-19T06:14:28.876Z,101057.84
2022-12-19T06:19:31.163Z,101062.03
2022-12-19T06:24:32.567Z,101085.34
2022-12-19T06:29:33.945Z,101079.28
2022-12-19T06:35:05.170Z,101091.03
2022-12-19T06:39:56.717Z,101085.16
2022-12-19T06:44:58.158Z,101079.88
2022-12-19T06:49:59.555Z,101080.53
2022-12-19T06:55:00.929Z,101079.47
2022-12-19T07:00:02.482Z,101068.97
2022-12-19T07:05:05.210Z,101083.47
2022-12-19T07:10:07.946Z,101080.50
2022-12-19T07:15:10.419Z,101087.00
2022-12-19T07:20:11.927Z,101088.03
2022-12-19T07:25:13.308Z,101084.03
2022-12-19T07:30:14.686Z,101083.19
2022-12-19T07:35:16.479Z,101072.25
2022-12-19T07:40:18.222Z,101084.00
2022-12-19T07:45:19.869Z,101064.88
2022-12-19T07:50:21.460Z,101079.34
2022-12-19T07:55:22.866Z,101091.09
2022-12-19T08:00:24.260Z,101073.63
2022-12-19T08:05:25.669Z,101080.38
2022-12-19T08:10:27.075Z,101076.88
2022-12-19T08:15:28.467Z,101076.44
2022-12-19T08:20:29.890Z,101080.25
2022-12-19T08:25:31.274Z,101062.63
2022-12-19T08:30:32.728Z,101052.94
2022-12-19T08:35:35.555Z,101044.81
2022-12-19T08:40:37.001Z,101041.66
2022-12-19T08:45:39.062Z,101024.22
2022-12-19T08:50:40.511Z,101006.78
2022-12-19T08:55:41.901Z,101004.06
2022-12-19T09:00:46.526Z,101011.84
2022-12-19T09:06:08.214Z,101016.44
2022-12-19T09:11:17.180Z,100997.97
2022-12-19T09:16:20.161Z,100992.72
2022-12-19T09:21:23.168Z,100988.94
2022-12-19T09:26:25.073Z,100995.59
2022-12-19T09:31:28.831Z,100989.06
2022-12-19T09:36:30.295Z,100965.69
2022-12-19T09:42:10.479Z,100981.84
2022-12-19T09:47:23.752Z,100984.81
2022-12-19T09:52:35.025Z,100978.47
2022-12-19T09:58:05.904Z,100972.97
2022-12-19T10:03:07.616Z,100970.50
2022-12-19T10:08:16.150Z,100970.94
2022-12-19T10:13:32.697Z,100966.03
2022-12-19T10:18:57.463Z,100964.06
2022-12-19T10:24:21.364Z,100964.47
2022-12-19T10:29:34.780Z,100955.41
2022-12-19T10:34:41.678Z,100947.38
2022-12-19T10:40:17.637Z,100948.38
2022-12-19T10:45:53.252Z,100946.28
2022-12-19T10:50:54.643Z,100938.63
2022-12-19T10:56:00.849Z,100940.09
2022-12-19T11:01:13.407Z,100931.66
2022-12-19T11:07:02.491Z,100926.84
2022-12-19T11:17:06.134Z,100914.19
2022-12-19T11:28:08.244Z,100917.94
2022-12-19T11:30:36.957Z,100884.97
2022-12-19T11:30:48.851Z,100902.81
2022-12-19T11:34:05.820Z,100873.13
2022-12-19T11:39:25.752Z,100876.66
2022-12-19T11:44:55.667Z,100869.09
2022-12-19T11:50:02.997Z,100863.19
2022-12-19T11:55:23.779Z,100870.53
2022-12-19T12:00:25.170Z,100866.25
2022-12-19T12:05:43.160Z,100861.16
2022-12-19T12:18:24.264Z,100846.13
2022-12-19T12:28:36.268Z,100839.97
2022-12-19T12:31:15.525Z,100834.88
2022-12-19T12:31:50.784Z,100829.88
2022-12-19T12:35:38.193Z,100825.69
2022-12-19T12:38:36.978Z,100821.72
2022-12-19T12:43:48.795Z,100810.88
2022-12-19T12:48:53.903Z,100796.81
2022-12-19T12:54:01.053Z,100798.78
2022-12-19T12:59:13.139Z,100804.03
2022-12-19T13:04:14.351Z,100789.28
2022-12-19T13:09:24.807Z,100780.63
2022-12-19T13:14:35.625Z,100788.00
2022-12-19T13:19:38.597Z,100772.59
2022-12-19T13:24:43.970Z,100776.38
2022-12-19T13:30:00.637Z,100767.25
2022-12-19T13:35:32.581Z,100775.06
2022-12-19T13:40:34.169Z,100765.94
2022-12-19T13:45:35.764Z,100769.16
2022-12-19T13:50:40.039Z,100778.13
2022-12-19T13:55:41.454Z,100763.50
2022-12-19T14:00:42.878Z,100763.75
2022-12-19T14:06:14.631Z,100760.63
2022-12-19T14:11:31.400Z,100758.50
2022-12-19T14:16:43.302Z,100756.75
2022-12-19T14:22:10.657Z,100755.91
2022-12-19T14:28:22.084Z,100757.56
2022-12-19T14:33:39.211Z,100764.34
2022-12-19T14:39:18.447Z,100767.91
2022-12-19T14:43:57.045Z,100753.25
2022-12-19T14:54:01.594Z,100754.56
2022-12-19T14:59:47.663Z,100749.81
2022-12-19T15:05:00.395Z,100752.34
2022-12-19T15:11:09.504Z,100752.81
2022-12-19T15:15:26.011Z,100740.88
2022-12-19T15:20:27.422Z,100741.53
2022-12-19T15:26:02.143Z,100752.34
2022-12-19T15:30:52.768Z,100762.44
2022-12-19T15:35:55.196Z,100754.81
2022-12-19T15:40:56.585Z,100761.84
2022-12-19T15:45:58.394Z,100750.06
2022-12-19T15:50:59.780Z,100734.31
2022-12-19T15:56:01.190Z,100728.84
2022-12-19T16:01:02.832Z,100716.66
2022-12-19T16:06:10.411Z,100727.78
2022-12-19T16:11:22.817Z,100711.41
2022-12-19T16:16:25.105Z,100721.13
2022-12-19T16:21:33.617Z,100713.75
2022-12-19T16:26:36.008Z,100706.16
2022-12-19T16:31:37.457Z,100709.72
2022-12-19T16:36:38.864Z,100702.81
2022-12-19T16:41:42.662Z,100700.31
2022-12-19T16:46:50.355Z,100709.13
2022-12-19T16:51:52.551Z,100716.25
2022-12-19T16:56:54.082Z,100718.00
2022-12-19T17:01:55.756Z,100725.56
2022-12-19T17:06:57.327Z,100717.81
2022-12-19T17:12:00.003Z,100710.72
2022-12-19T17:17:01.477Z,100707.97
2022-12-19T17:22:02.902Z,100706.69
2022-12-19T17:27:04.278Z,100705.47
2022-12-19T17:32:08.698Z,100712.00
2022-12-19T17:37:13.688Z,100709.09
2022-12-19T17:42:24.641Z,100713.50
2022-12-19T17:47:26.059Z,100701.91
2022-12-19T17:52:27.435Z,100704.41
2022-12-19T17:57:28.821Z,100706.28
2022-12-19T18:02:30.328Z,100700.88
2022-12-19T18:07:31.820Z,100695.06
2022-12-19T18:12:33.302Z,100690.59
2022-12-19T18:17:34.982Z,100704.25
2022-12-19T18:22:36.439Z,100695.81
2022-12-19T18:27:37.825Z,100704.25
2022-12-19T18:32:39.209Z,100700.22
2022-12-19T18:37:40.615Z,100692.47
2022-12-19T18:42:43.036Z,100706.59
2022-12-19T18:47:49.851Z,100698.41
2022-12-19T18:52:53.087Z,100692.25
2022-12-19T18:57:55.210Z,100703.16
2022-12-19T19:03:04.206Z,100671.47
2022-12-19T19:08:15.615Z,100663.47
2022-12-19T19:13:17.287Z,100668.09
2022-12-19T19:18:30.163Z,100665.00
2022-12-19T19:23:43.320Z,100653.44
2022-12-19T19:28:50.313Z,100660.59
2022-12-19T19:33:59.784Z,100663.13
2022-12-19T19:39:01.948Z,100671.31
2022-12-19T19:44:03.343Z,100675.94
2022-12-19T19:49:04.792Z,100675.31
2022-12-19T19:54:06.780Z,100669.03
2022-12-19T19:59:08.190Z,100647.78
2022-12-19T20:04:09.679Z,100638.28
2022-12-19T20:09:11.072Z,100637.44
2022-12-19T20:14:12.450Z,100636.25
2022-12-19T20:19:15.544Z,100632.44
2022-12-19T20:24:17.097Z,100628.88
2022-12-19T20:29:18.477Z,100628.66
2022-12-19T20:34:20.036Z,100621.88
2022-12-19T20:39:24.397Z,100618.19
2022-12-19T20:44:25.791Z,100617.94
2022-12-19T20:49:27.250Z,100601.00
2022-12-19T20:54:28.686Z,100596.72
2022-12-19T20:59:30.096Z,100590.66
2022-12-19T21:04:31.933Z,100599.91
2022-12-19T21:09:33.497Z,100595.25
2022-12-19T21:14:34.882Z,100589.09
2022-12-19T21:19:36.308Z,100607.16
2022-12-19T21:24:37.678Z,100600.94
2022-12-19T21:29:39.321Z,100598.00
2022-12-19T21:34:40.696Z,100626.06
2022-12-19T21:39:42.090Z,100604.78
2022-12-19T21:44:43.544Z,100595.16
2022-12-19T21:49:44.947Z,100596.31
2022-12-19T21:54:46.349Z,100582.44
2022-12-19T21:59:47.727Z,100606.41
2022-12-19T22:04:49.648Z,100612.69
2022-12-19T22:09:51.050Z,100598.63
2022-12-19T22:14:52.486Z,100597.41
2022-12-19T22:19:53.854Z,100589.63
2022-12-19T22:24:55.293Z,100616.88
2022-12-19T22:29:57.277Z,100605.28
2022-12-19T22:34:58.691Z,100621.13
2022-12-19T22:40:00.245Z,100613.16
2022-12-19T22:45:01.931Z,100600.34
2022-12-19T22:50:03.554Z,100605.03
2022-12-19T22:55:06.041Z,100623.72
2022-12-19T23:00:09.839Z,100623.84
2022-12-19T23:05:11.280Z,100634.56
2022-12-19T23:10:12.681Z,100632.22
2022-12-19T23:15:14.091Z,100617.34
2022-12-19T23:20:15.590Z,100617.41
2022-12-19T23:25:17.014Z,100614.53
2022-12-19T23:30:18.486Z,100622.50
2022-12-19T23:35:19.873Z,100627.88
2022-12-19T23:40:21.242Z,100629.03
2022-12-19T23:45:22.738Z,100616.19
2022-12-19T23:50:25.027Z,100610.13
2022-12-19T23:55:26.586Z,100588.84
